Time;durP1;ratioP1;P1;durP2;ratioP2;P2;SDS_P1;SDS_P2;PMS_P1;PMS_P2;Temp;Humidity;BMP_temperature;BMP_pressure;BME280_temperature;BME280_humidity;BME280_pressure;Samples;Min_cycle;Max_cycle;Signal;HPM_P1;HPM_P2
2021/01/07 00:00:25;;;;;;;5.07;3.23;;;;;;;3.13;100.00;97846.22;5069040;28;20656;-73
2021/01/07 00:02:52;;;;;;;6.23;3.23;;;;;;;3.10;100.00;97841.25;5074004;28;20663;-77
2021/01/07 00:05:19;;;;;;;6.13;3.70;;;;;;;3.11;100.00;97842.91;5074324;28;20579;-74
2021/01/07 00:07:45;;;;;;;4.63;3.63;;;;;;;3.04;100.00;97844.53;5073374;28;20546;-75
2021/01/07 00:10:12;;;;;;;6.77;3.87;;;;;;;3.06;100.00;97842.53;5073775;28;20201;-78
2021/01/07 00:12:40;;;;;;;5.47;3.07;;;;;;;3.12;100.00;97839.31;5074108;28;20677;-75
2021/01/07 00:15:07;;;;;;;6.87;3.40;;;;;;;3.03;100.00;97842.88;5073867;28;20242;-75
2021/01/07 00:17:35;;;;;;;8.17;3.77;;;;;;;3.02;100.00;97843.03;5074402;28;20557;-76
2021/01/07 00:20:05;;;;;;;5.70;3.30;;;;;;;3.13;100.00;97843.59;5074130;28;20197;-75
2021/01/07 00:22:32;;;;;;;6.13;3.30;;;;;;;3.17;100.00;97847.56;5073863;28;20200;-73
2021/01/07 00:24:59;;;;;;;5.63;3.47;;;;;;;3.18;100.00;97843.94;5073694;28;20227;-76
2021/01/07 00:27:26;;;;;;;6.17;4.20;;;;;;;3.24;100.00;97842.44;5073677;28;20201;-75
2021/01/07 00:29:52;;;;;;;6.50;3.93;;;;;;;3.20;100.00;97847.22;5073771;28;20681;-79
2021/01/07 00:32:19;;;;;;;5.93;3.90;;;;;;;3.15;100.00;97846.88;5073646;28;20564;-75
2021/01/07 00:34:47;;;;;;;6.60;3.93;;;;;;;3.15;100.00;97846.88;5073556;28;20232;-73
2021/01/07 00:37:14;;;;;;;7.13;3.93;;;;;;;3.08;100.00;97851.13;5073844;28;20662;-75
2021/01/07 00:39:41;;;;;;;7.53;4.27;;;;;;;3.08;100.00;97845.88;5067895;28;20202;-73
2021/01/07 00:42:08;;;;;;;6.83;4.13;;;;;;;3.17;100.00;97850.19;5073830;28;20221;-73
2021/01/07 00:44:34;;;;;;;6.40;3.70;;;;;;;3.12;100.00;97844.56;5073146;28;20217;-73
2021/01/07 00:47:01;;;;;;;6.10;3.83;;;;;;;3.11;100.00;97850.00;5073907;28;20200;-76
2021/01/07 00:49:28;;;;;;;5.57;3.20;;;;;;;3.06;100.00;97844.38;5073199;28;20287;-74
2021/01/07 00:51:56;;;;;;;6.97;3.77;;;;;;;2.98;100.00;97850.44;5070035;28;20211;-74
2021/01/07 00:54:23;;;;;;;6.27;3.80;;;;;;;2.96;100.00;97841.03;5073095;28;20303;-74
2021/01/07 00:56:49;;;;;;;7.43;3.97;;;;;;;2.99;100.00;97849.44;5073368;28;20285;-76
2021/01/07 00:59:16;;;;;;;8.23;4.53;;;;;;;2.96;100.00;97841.84;5069422;28;20685;-74
2021/01/07 01:01:44;;;;;;;6.13;3.70;;;;;;;3.14;100.00;97849.66;5070975;28;20297;-73
2021/01/07 01:04:11;;;;;;;6.53;3.90;;;;;;;3.10;100.00;97845.72;5067092;28;20222;-73
2021/01/07 01:06:38;;;;;;;8.73;4.70;;;;;;;3.12;100.00;97844.56;5072974;28;20193;-78
2021/01/07 01:09:06;;;;;;;8.37;4.87;;;;;;;3.12;100.00;97841.94;5071079;28;20212;-74
2021/01/07 01:11:38;;;;;;;7.23;4.30;;;;;;;3.14;100.00;97847.03;5072407;28;20189;-73
2021/01/07 01:14:06;;;;;;;5.57;3.83;;;;;;;3.11;100.00;97842.91;5071295;28;20220;-74
2021/01/07 01:16:33;;;;;;;7.30;4.40;;;;;;;3.14;100.00;97849.66;5073141;28;20205;-74
2021/01/07 01:19:00;;;;;;;6.47;4.10;;;;;;;2.98;100.00;97837.25;5072615;28;20229;-74
2021/01/07 01:21:26;;;;;;;6.87;4.30;;;;;;;2.99;100.00;97841.53;5072617;28;20193;-74
2021/01/07 01:23:53;;;;;;;6.50;3.93;;;;;;;3.03;100.00;97845.50;5072523;28;20197;-74
2021/01/07 01:26:21;;;;;;;7.90;4.60;;;;;;;2.97;100.00;97840.88;5072775;28;20193;-76
2021/01/07 01:28:48;;;;;;;6.77;4.20;;;;;;;3.08;100.00;97843.22;5073012;28;20197;-74
2021/01/07 01:31:15;;;;;;;6.97;4.30;;;;;;;3.13;100.00;97848.00;5072391;28;20201;-74
2021/01/07 01:33:41;;;;;;;6.77;4.43;;;;;;;3.06;100.00;97855.72;5072357;28;20685;-74
2021/01/07 01:36:08;;;;;;;11.90;4.47;;;;;;;2.89;100.00;97854.00;5072364;28;20266;-73
2021/01/07 01:38:35;;;;;;;8.70;4.77;;;;;;;2.96;100.00;97848.94;5072517;28;20221;-74
2021/01/07 01:41:03;;;;;;;6.90;4.37;;;;;;;3.08;100.00;97856.41;5071828;28;20243;-74
2021/01/07 01:43:31;;;;;;;5.83;3.87;;;;;;;3.00;100.00;97851.09;5072044;28;20196;-73
2021/01/07 01:45:58;;;;;;;7.97;4.53;;;;;;;3.02;100.00;97859.69;5068761;28;20645;-74
2021/01/07 01:48:26;;;;;;;7.30;4.03;;;;;;;2.93;100.00;97851.88;5072348;28;20193;-81
2021/01/07 01:50:53;;;;;;;7.40;4.33;;;;;;;3.09;100.00;97859.84;5068267;28;20673;-77
2021/01/07 01:53:22;;;;;;;10.00;5.30;;;;;;;3.00;100.00;97856.34;5072207;28;20662;-73
2021/01/07 01:55:49;;;;;;;8.43;4.87;;;;;;;2.89;100.00;97856.66;5067793;28;20229;-74
2021/01/07 01:58:16;;;;;;;7.20;4.80;;;;;;;2.86;100.00;97856.13;5071964;28;20220;-74
2021/01/07 02:00:44;;;;;;;7.87;4.13;;;;;;;3.02;100.00;97854.41;5070944;28;20666;-76
2021/01/07 02:03:11;;;;;;;8.83;5.10;;;;;;;3.09;100.00;97851.94;5072433;28;20208;-77
2021/01/07 02:05:39;;;;;;;7.53;4.47;;;;;;;3.06;100.00;97855.72;5071717;28;20251;-74
2021/01/07 02:08:08;;;;;;;7.13;4.47;;;;;;;3.03;100.00;97857.84;5072109;28;20669;-75
2021/01/07 02:10:36;;;;;;;9.87;4.33;;;;;;;3.08;100.00;97850.31;5066363;28;20254;-74
2021/01/07 02:13:04;;;;;;;7.07;4.00;;;;;;;3.08;100.00;97852.94;5071855;28;20737;-74
2021/01/07 02:15:31;;;;;;;7.60;4.37;;;;;;;3.06;100.00;97857.56;5072187;28;20270;-74
2021/01/07 02:17:59;;;;;;;6.77;4.23;;;;;;;2.88;100.00;97854.16;5072141;28;20228;-77
2021/01/07 02:20:28;;;;;;;6.73;4.07;;;;;;;2.92;100.00;97863.41;5068429;28;20207;-76
2021/01/07 02:22:55;;;;;;;6.77;4.17;;;;;;;2.90;100.00;97858.28;5071739;28;20665;-74
2021/01/07 02:25:22;;;;;;;9.27;4.87;;;;;;;2.89;100.00;97863.75;5071713;28;20216;-75
2021/01/07 02:27:49;;;;;;;7.90;4.23;;;;;;;2.74;100.00;97855.56;5071558;28;20211;-74
2021/01/07 02:30:17;;;;;;;8.00;4.27;;;;;;;2.86;100.00;97854.34;5071524;28;20193;-74
2021/01/07 02:32:44;;;;;;;6.63;4.00;;;;;;;2.87;100.00;97855.97;5071270;28;20209;-75
2021/01/07 02:35:12;;;;;;;12.33;4.47;;;;;;;2.82;100.00;97858.25;5071636;28;20225;-74
2021/01/07 02:37:41;;;;;;;7.63;4.87;;;;;;;2.85;100.00;97857.94;5070469;28;20220;-74
2021/01/07 02:40:08;;;;;;;7.13;3.83;;;;;;;2.88;100.00;97857.63;5071641;28;20203;-74
2021/01/07 02:42:35;;;;;;;10.03;4.80;;;;;;;2.66;100.00;97858.19;5071756;28;20204;-74
2021/01/07 02:45:03;;;;;;;7.60;4.60;;;;;;;2.76;100.00;97858.06;5071330;28;20221;-77
2021/01/07 02:47:30;;;;;;;8.00;4.13;;;;;;;2.67;100.00;97849.28;5071881;28;20296;-74
2021/01/07 02:49:56;;;;;;;7.00;4.43;;;;;;;2.86;100.00;97849.06;5071764;28;20619;-79
2021/01/07 02:52:23;;;;;;;7.10;4.23;;;;;;;2.69;100.00;97847.31;5071670;28;20197;-75
2021/01/07 02:54:51;;;;;;;8.60;4.37;;;;;;;2.82;100.00;97845.09;5071172;28;20229;-75
2021/01/07 02:57:18;;;;;;;7.87;4.53;;;;;;;2.75;100.00;97844.03;5071027;28;20205;-75
2021/01/07 02:59:44;;;;;;;6.97;4.33;;;;;;;2.82;100.00;97839.81;5068177;28;20212;-75
2021/01/07 03:02:11;;;;;;;7.80;4.83;;;;;;;2.72;100.00;97847.00;5072150;28;20885;-75
2021/01/07 03:04:38;;;;;;;8.70;4.37;;;;;;;2.78;100.00;97838.47;5073829;28;20224;-75
2021/01/07 03:07:05;;;;;;;8.23;4.73;;;;;;;2.80;100.00;97839.13;5073702;28;20205;-76
2021/01/07 03:09:32;;;;;;;7.73;3.93;;;;;;;2.83;100.00;97841.47;5071221;28;20662;-73
2021/01/07 03:12:10;;;;;;;6.33;3.87;;;;;;;2.76;100.00;97843.09;5063323;28;20205;-78
2021/01/07 03:14:37;;;;;;;5.83;3.43;;;;;;;2.67;100.00;97848.44;5075409;28;20250;-75
2021/01/07 03:17:03;;;;;;;6.37;3.67;;;;;;;2.85;100.00;97844.75;5066773;28;20205;-75
2021/01/07 03:19:30;;;;;;;5.77;3.63;;;;;;;2.80;100.00;97843.59;5075446;28;20662;-78
2021/01/07 03:21:57;;;;;;;6.27;2.90;;;;;;;2.67;100.00;97838.75;5075294;28;20568;-79
2021/01/07 03:24:24;;;;;;;4.87;2.90;;;;;;;2.64;100.00;97839.03;5067740;28;20263;-75
2021/01/07 03:26:51;;;;;;;5.77;3.10;;;;;;;2.77;100.00;97833.34;5071719;28;20262;-75
2021/01/07 03:29:19;;;;;;;5.93;2.83;;;;;;;2.76;100.00;97832.53;5075176;28;20873;-76
2021/01/07 03:31:45;;;;;;;5.17;2.80;;;;;;;2.69;100.00;97839.41;5074301;28;20691;-76
2021/01/07 03:34:12;;;;;;;4.67;3.03;;;;;;;2.77;100.00;97831.56;5074722;28;20225;-75
2021/01/07 03:36:39;;;;;;;4.77;3.10;;;;;;;2.53;100.00;97834.03;5074855;28;20202;-75
2021/01/07 03:39:06;;;;;;;3.30;2.27;;;;;;;2.70;100.00;97842.88;5074409;28;20225;-76
2021/01/07 03:41:33;;;;;;;5.50;2.57;;;;;;;2.61;100.00;97826.19;5074540;28;20202;-75
2021/01/07 03:43:59;;;;;;;3.53;2.50;;;;;;;2.71;100.00;97829.56;5069729;28;20225;-75
2021/01/07 03:46:27;;;;;;;3.60;2.40;;;;;;;2.71;100.00;97833.97;5074172;28;20248;-76
2021/01/07 03:48:54;;;;;;;5.90;2.90;;;;;;;2.58;100.00;97823.88;5075091;28;20258;-77
2021/01/07 03:51:21;;;;;;;4.70;3.23;;;;;;;2.59;100.00;97824.72;5071645;28;20209;-75
2021/01/07 03:53:47;;;;;;;5.30;2.63;;;;;;;2.59;100.00;97828.16;5074594;28;20243;-75
2021/01/07 03:56:14;;;;;;;3.70;2.27;;;;;;;2.64;100.00;97825.06;5074068;28;20667;-75
2021/01/07 03:58:41;;;;;;;4.57;2.40;;;;;;;2.80;100.00;97817.25;5075251;28;20221;-75
2021/01/07 04:01:08;;;;;;;4.83;2.57;;;;;;;2.58;100.00;97817.75;5074418;28;20197;-75
2021/01/07 04:03:36;;;;;;;4.37;2.30;;;;;;;2.78;100.00;97821.81;5075067;28;20197;-75
2021/01/07 04:06:03;;;;;;;3.63;2.50;;;;;;;2.68;100.00;97823.75;5074055;28;20204;-76
2021/01/07 04:08:29;;;;;;;7.20;2.50;;;;;;;2.78;100.00;97814.75;5074329;28;20251;-75
2021/01/07 04:10:56;;;;;;;3.53;2.60;;;;;;;2.78;100.00;97813.91;5073371;28;20213;-75
2021/01/07 04:13:23;;;;;;;3.43;2.07;;;;;;;2.81;100.00;97809.19;5066761;28;20194;-75
2021/01/07 04:15:50;;;;;;;3.87;2.23;;;;;;;2.77;100.00;97813.13;5074114;28;20229;-75
2021/01/07 04:18:17;;;;;;;3.63;2.30;;;;;;;2.76;100.00;97818.53;5071919;28;20217;-77
2021/01/07 04:20:44;;;;;;;4.23;2.40;;;;;;;2.72;100.00;97820.66;5073821;28;20197;-75
2021/01/07 04:23:11;;;;;;;6.60;2.33;;;;;;;2.77;100.00;97821.03;5074439;28;20207;-75
2021/01/07 04:25:38;;;;;;;4.13;2.30;;;;;;;2.65;100.00;97811.72;5073628;28;20716;-75
2021/01/07 04:28:05;;;;;;;4.53;2.70;;;;;;;2.52;100.00;97811.31;5073817;28;20273;-75
2021/01/07 04:30:32;;;;;;;3.27;2.13;;;;;;;2.53;100.00;97815.59;5074211;28;20580;-75
2021/01/07 04:32:58;;;;;;;3.30;2.23;;;;;;;2.54;100.00;97811.19;5072664;28;20201;-75
2021/01/07 04:35:25;;;;;;;5.13;2.27;;;;;;;2.65;100.00;97809.06;5063101;28;20286;-75
2021/01/07 04:37:53;;;;;;;4.97;2.60;;;;;;;2.63;100.00;97810.22;5073181;28;20233;-79
2021/01/07 04:40:20;;;;;;;2.87;2.20;;;;;;;2.72;100.00;97814.56;5065483;28;20212;-75
2021/01/07 04:42:47;;;;;;;4.10;2.70;;;;;;;2.61;100.00;97813.03;5068247;28;20208;-75
2021/01/07 04:45:14;;;;;;;4.27;2.50;;;;;;;2.52;100.00;97810.50;5061966;28;20217;-75
2021/01/07 04:47:41;;;;;;;2.93;2.10;;;;;;;2.58;100.00;97818.59;5073686;28;20201;-75
2021/01/07 04:50:09;;;;;;;5.47;3.00;;;;;;;2.61;100.00;97822.72;5071749;28;20212;-75
2021/01/07 04:52:36;;;;;;;4.03;2.27;;;;;;;2.52;100.00;97821.03;5073650;28;20201;-75
2021/01/07 04:55:04;;;;;;;4.87;2.10;;;;;;;2.71;100.00;97818.19;5073175;28;20271;-75
2021/01/07 04:57:31;;;;;;;3.70;2.77;;;;;;;2.56;100.00;97817.09;5073207;28;20217;-75
2021/01/07 04:59:58;;;;;;;6.63;3.17;;;;;;;2.66;100.00;97823.94;5073355;28;20233;-76
2021/01/07 05:02:25;;;;;;;4.17;2.87;;;;;;;2.63;100.00;97824.22;5073769;28;20204;-75
2021/01/07 05:04:53;;;;;;;6.07;2.60;;;;;;;2.62;100.00;97819.94;5073514;28;20271;-79
2021/01/07 05:07:20;;;;;;;3.90;2.47;;;;;;;2.69;100.00;97828.88;5073482;28;20624;-74
2021/01/07 05:09:48;;;;;;;5.70;2.70;;;;;;;2.68;100.00;97824.59;5072968;28;20559;-75
2021/01/07 05:12:15;;;;;;;4.33;2.40;;;;;;;2.84;100.00;97815.94;5073061;28;20193;-75
2021/01/07 05:14:46;;;;;;;4.90;2.70;;;;;;;2.73;100.00;97821.47;5072766;28;20626;-76
2021/01/07 05:17:14;;;;;;;4.83;2.50;;;;;;;2.86;100.00;97820.09;5072945;28;20189;-74
2021/01/07 05:19:41;;;;;;;6.63;2.67;;;;;;;2.89;100.00;97816.31;5073008;28;20216;-75
2021/01/07 05:22:09;;;;;;;6.53;3.10;;;;;;;2.69;100.00;97823.59;5072350;28;20194;-76
2021/01/07 05:24:38;;;;;;;3.53;2.67;;;;;;;2.79;100.00;97812.97;5072869;28;20209;-77
2021/01/07 05:27:09;;;;;;;3.80;2.43;;;;;;;2.84;100.00;97808.03;5072869;28;20193;-75
2021/01/07 05:29:37;;;;;;;4.17;2.70;;;;;;;2.70;100.00;97816.53;5072465;28;20204;-76
2021/01/07 05:32:04;;;;;;;7.67;2.97;;;;;;;2.68;100.00;97819.31;5079860;28;20201;-77
2021/01/07 05:34:31;;;;;;;4.43;3.07;;;;;;;2.50;100.00;97823.00;5081014;28;20300;-76
2021/01/07 05:36:58;;;;;;;4.70;2.50;;;;;;;2.66;100.00;97821.28;5070688;28;20291;-77
2021/01/07 05:39:33;;;;;;;6.43;2.73;;;;;;;2.92;100.00;97818.59;5073667;28;20213;-77
2021/01/07 05:42:01;;;;;;;4.60;2.90;;;;;;;2.54;100.00;97819.88;5064337;28;20204;-78
2021/01/07 05:44:31;;;;;;;5.23;3.30;;;;;;;2.52;100.00;97818.38;5075419;28;20297;-74
2021/01/07 05:46:58;;;;;;;5.50;2.97;;;;;;;2.67;100.00;97822.94;5075358;28;20542;-78
2021/01/07 05:49:35;;;;;;;6.83;3.17;;;;;;;2.88;100.00;97815.47;5070279;28;20203;-77
2021/01/07 05:52:05;;;;;;;5.43;3.40;;;;;;;2.90;100.00;97816.13;5070187;28;20192;-78
2021/01/07 05:54:33;;;;;;;6.00;2.87;;;;;;;2.96;100.00;97810.22;5072850;28;20221;-78
2021/01/07 05:57:03;;;;;;;6.07;3.50;;;;;;;2.97;100.00;97817.16;5072138;28;20209;-77
2021/01/07 05:59:33;;;;;;;6.47;3.60;;;;;;;2.80;100.00;97815.41;5072779;28;22549;-77
2021/01/07 06:02:03;;;;;;;5.63;3.23;;;;;;;3.05;100.00;97819.00;5069779;28;20209;-75
2021/01/07 06:04:34;;;;;;;6.60;3.70;;;;;;;3.09;100.00;97821.16;5066160;28;20221;-77
2021/01/07 06:07:01;;;;;;;8.33;3.53;;;;;;;3.04;100.00;97819.97;5070604;28;20193;-77
2021/01/07 06:09:30;;;;;;;7.13;3.40;;;;;;;3.02;100.00;97820.16;5067264;28;20194;-75
2021/01/07 06:11:58;;;;;;;4.63;2.70;;;;;;;3.06;100.00;97821.47;5071642;28;20197;-76
2021/01/07 06:14:26;;;;;;;5.47;3.80;;;;;;;2.80;100.00;97819.88;5071638;28;20717;-78
2021/01/07 06:16:54;;;;;;;6.57;3.70;;;;;;;2.79;100.00;97819.03;5069516;28;20201;-78
2021/01/07 06:19:35;;;;;;;6.53;3.70;;;;;;;2.60;100.00;97826.34;5072368;28;20223;-77
2021/01/07 06:22:07;;;;;;;6.50;3.60;;;;;;;2.65;100.00;97821.44;5069948;28;20196;-76
2021/01/07 06:24:37;;;;;;;6.80;3.43;;;;;;;2.98;100.00;97829.34;5071900;28;20710;-74
2021/01/07 06:27:27;;;;;;;8.03;4.03;;;;;;;3.03;100.00;97826.22;5067311;28;20208;-76
2021/01/07 06:29:55;;;;;;;6.40;3.80;;;;;;;2.45;100.00;97822.63;5072181;28;20204;-80
2021/01/07 06:32:24;;;;;;;6.60;4.10;;;;;;;2.46;100.00;97819.84;5072640;28;20463;-78
2021/01/07 06:34:52;;;;;;;9.17;4.47;;;;;;;2.74;100.00;97816.06;5072722;28;20274;-77
2021/01/07 06:37:32;;;;;;;7.07;4.03;;;;;;;2.56;100.00;97817.09;5072464;28;20197;-77
2021/01/07 06:40:00;;;;;;;7.40;4.27;;;;;;;2.53;100.00;97820.88;5071377;28;20199;-76
2021/01/07 06:42:28;;;;;;;8.73;4.57;;;;;;;2.69;100.00;97826.22;5074240;28;20193;-77
2021/01/07 06:44:56;;;;;;;10.27;4.90;;;;;;;2.92;100.00;97832.63;5072454;28;20218;-77
2021/01/07 06:47:23;;;;;;;9.00;4.40;;;;;;;3.06;100.00;97832.00;5071735;28;20197;-77
2021/01/07 06:49:51;;;;;;;7.10;4.20;;;;;;;2.98;100.00;97829.34;5070721;28;20201;-75
2021/01/07 06:52:23;;;;;;;8.40;4.50;;;;;;;2.94;100.00;97835.91;5069278;28;20662;-78
2021/01/07 06:54:52;;;;;;;9.83;4.77;;;;;;;2.57;100.00;97840.66;5066657;28;20236;-78
2021/01/07 06:57:19;;;;;;;11.00;4.83;;;;;;;2.66;100.00;97831.84;5062922;28;20201;-77
2021/01/07 06:59:58;;;;;;;7.20;4.30;;;;;;;2.86;100.00;97835.06;5063362;28;20612;-76
2021/01/07 07:02:26;;;;;;;9.43;5.17;;;;;;;2.69;100.00;97828.88;5070759;28;20216;-78
2021/01/07 07:05:01;;;;;;;8.73;4.73;;;;;;;2.97;100.00;97834.78;5071940;28;20269;-76
2021/01/07 07:08:06;;;;;;;8.73;5.00;;;;;;;2.98;100.00;97844.31;5066626;28;20206;-76
2021/01/07 07:11:09;;;;;;;9.83;5.07;;;;;;;2.70;100.00;97843.69;5068754;28;20201;-75
2021/01/07 07:13:43;;;;;;;11.03;4.83;;;;;;;2.81;100.00;97842.59;5067574;28;20189;-76
2021/01/07 07:16:14;;;;;;;10.53;5.37;;;;;;;2.64;100.00;97848.78;5069671;28;20205;-76
2021/01/07 07:18:41;;;;;;;10.93;5.47;;;;;;;2.75;100.00;97843.22;5072662;28;20213;-76
2021/01/07 07:21:17;;;;;;;10.53;5.13;;;;;;;2.82;100.00;97849.53;5070694;28;20691;-80
2021/01/07 07:23:44;;;;;;;11.07;5.10;;;;;;;2.95;100.00;97847.28;5072145;28;20209;-77
2021/01/07 07:26:12;;;;;;;7.97;4.73;;;;;;;2.86;100.00;97853.50;5071591;28;20205;-78
2021/01/07 07:28:44;;;;;;;11.23;6.00;;;;;;;2.77;100.00;97852.63;5072372;28;20243;-78
2021/01/07 07:31:12;;;;;;;10.83;5.43;;;;;;;3.06;100.00;97854.91;5065543;28;20208;-78
2021/01/07 07:33:40;;;;;;;8.47;5.30;;;;;;;2.76;100.00;97858.06;5069577;28;20322;-78
2021/01/07 07:36:08;;;;;;;11.53;5.37;;;;;;;2.84;100.00;97851.00;5071874;28;20201;-78
2021/01/07 07:38:37;;;;;;;9.83;5.53;;;;;;;2.96;100.00;97855.03;5070967;28;20696;-78
2021/01/07 07:41:06;;;;;;;13.30;5.37;;;;;;;2.91;100.00;97856.50;5070717;28;20665;-78
2021/01/07 07:43:33;;;;;;;10.30;5.13;;;;;;;3.12;100.00;97859.56;5070799;28;20193;-77
2021/01/07 07:46:01;;;;;;;11.73;5.53;;;;;;;3.14;100.00;97849.66;5071228;28;20324;-77
2021/01/07 07:48:29;;;;;;;10.77;5.40;;;;;;;3.20;100.00;97854.31;5072949;28;20197;-77
2021/01/07 07:51:09;;;;;;;11.07;5.87;;;;;;;2.99;100.00;97856.50;5070243;28;20205;-78
2021/01/07 07:53:38;;;;;;;11.93;6.03;;;;;;;2.92;100.00;97869.53;5075413;28;20186;-77
2021/01/07 07:56:19;;;;;;;8.77;4.70;;;;;;;2.84;100.00;97853.66;5075225;28;20255;-78
2021/01/07 07:58:45;;;;;;;11.47;5.33;;;;;;;2.86;100.00;97862.25;5075366;28;20205;-75
2021/01/07 08:01:12;;;;;;;11.97;5.63;;;;;;;3.12;100.00;97872.72;5069444;28;20716;-75
2021/01/07 08:03:39;;;;;;;13.70;6.47;;;;;;;2.92;100.00;97866.88;5075212;28;20205;-75
2021/01/07 08:06:06;;;;;;;12.63;6.03;;;;;;;3.04;100.00;97867.41;5070837;28;20680;-75
2021/01/07 08:08:33;;;;;;;11.00;6.40;;;;;;;3.17;100.00;97873.09;5074028;28;20205;-74
2021/01/07 08:11:02;;;;;;;13.03;5.70;;;;;;;3.24;100.00;97874.09;5066998;28;20245;-76
2021/01/07 08:13:31;;;;;;;12.90;5.50;;;;;;;3.15;100.00;97873.25;5076031;28;20327;-75
2021/01/07 08:15:59;;;;;;;10.50;6.23;;;;;;;3.18;100.00;97875.56;5075147;28;20225;-75
2021/01/07 08:18:27;;;;;;;10.80;5.60;;;;;;;3.25;100.00;97878.41;5074354;28;20244;-75
2021/01/07 08:20:55;;;;;;;10.23;5.40;;;;;;;3.48;100.00;97882.09;5072433;28;20202;-81
2021/01/07 08:23:24;;;;;;;13.48;7.10;;;;;;;3.47;100.00;97878.66;5072379;28;20445;-78
2021/01/07 08:25:52;;;;;;;11.00;5.27;;;;;;;3.51;100.00;97882.59;5070848;28;20225;-77
2021/01/07 08:28:25;;;;;;;9.60;5.53;;;;;;;3.30;100.00;97881.41;5075302;28;20197;-78
2021/01/07 08:30:55;;;;;;;10.87;5.63;;;;;;;3.48;100.00;97884.75;5073830;28;20213;-79
2021/01/07 08:33:23;;;;;;;11.00;6.43;;;;;;;3.62;100.00;97882.34;5082186;28;20449;-78
2021/01/07 08:35:54;;;;;;;10.37;5.53;;;;;;;3.78;100.00;97886.81;5076668;28;20770;-77
2021/01/07 08:38:25;;;;;;;8.97;5.30;;;;;;;3.79;100.00;97886.66;5076493;28;20229;-81
2021/01/07 08:40:54;;;;;;;10.97;5.70;;;;;;;3.64;100.00;97888.25;5074107;28;20207;-77
2021/01/07 08:43:21;;;;;;;9.03;5.40;;;;;;;3.80;100.00;97888.28;5073466;28;20713;-80
2021/01/07 08:45:49;;;;;;;9.83;5.43;;;;;;;3.42;100.00;97894.13;5072438;28;20224;-76
2021/01/07 08:48:22;;;;;;;8.97;5.37;;;;;;;3.50;100.00;97890.72;5074254;28;20662;-74
2021/01/07 08:50:50;;;;;;;10.53;4.40;;;;;;;3.59;100.00;97898.47;5071356;28;20284;-79
2021/01/07 08:53:18;;;;;;;10.03;5.40;;;;;;;3.81;100.00;97900.50;5077674;28;20251;-78
2021/01/07 08:55:49;;;;;;;9.97;5.20;;;;;;;3.82;100.00;97899.50;5073339;28;20229;-76
2021/01/07 08:58:24;;;;;;;12.00;5.57;;;;;;;3.78;100.00;97894.72;5076497;28;20213;-76
2021/01/07 09:00:52;;;;;;;8.37;4.53;;;;;;;3.86;100.00;97897.41;5067734;28;20201;-79
2021/01/07 09:03:20;;;;;;;7.63;4.37;;;;;;;3.79;100.00;97889.28;5077226;28;20611;-79
2021/01/07 09:05:46;;;;;;;11.23;5.30;;;;;;;3.50;100.00;97894.16;5078001;28;20249;-76
2021/01/07 09:08:14;;;;;;;8.20;4.93;;;;;;;3.12;100.00;97893.81;5066612;28;20221;-77
2021/01/07 09:10:42;;;;;;;6.73;4.10;;;;;;;3.29;100.00;97893.75;5070822;28;20299;-80
2021/01/07 09:13:19;;;;;;;8.97;4.50;;;;;;;3.51;100.00;97893.16;5077776;28;20254;-76
2021/01/07 09:15:47;;;;;;;9.63;5.40;;;;;;;3.35;100.00;97894.94;5073723;28;20219;-75
2021/01/07 09:18:17;;;;;;;8.37;4.77;;;;;;;3.55;100.00;97891.84;5068487;28;20226;-76
2021/01/07 09:20:44;;;;;;;9.07;5.50;;;;;;;4.08;100.00;97891.47;5068368;28;20202;-76
2021/01/07 09:23:14;;;;;;;9.53;4.97;;;;;;;4.10;100.00;97895.63;5077983;28;20218;-76
2021/01/07 09:25:41;;;;;;;9.47;4.97;;;;;;;4.24;100.00;97897.63;5078790;28;20245;-77
2021/01/07 09:28:08;;;;;;;9.30;4.67;;;;;;;4.17;100.00;97901.06;5082110;28;20209;-76
2021/01/07 09:30:36;;;;;;;9.87;4.40;;;;;;;4.20;100.00;97898.09;5082012;28;20623;-75
2021/01/07 09:33:04;;;;;;;8.30;4.47;;;;;;;3.69;100.00;97890.41;5083862;28;20204;-76
2021/01/07 09:35:31;;;;;;;9.33;4.93;;;;;;;4.10;100.00;97892.13;5084331;28;20254;-78
2021/01/07 09:37:58;;;;;;;6.97;4.43;;;;;;;4.38;100.00;97893.50;5073066;28;20210;-74
2021/01/07 09:40:25;;;;;;;12.17;5.00;;;;;;;4.16;100.00;97896.78;5079221;28;20203;-74
2021/01/07 09:42:52;;;;;;;8.53;4.57;;;;;;;4.08;100.00;97899.41;5075776;28;20251;-75
2021/01/07 09:45:19;;;;;;;9.63;4.87;;;;;;;3.98;100.00;97898.72;5071124;28;20234;-74
2021/01/07 09:47:46;;;;;;;7.33;4.57;;;;;;;3.88;100.00;97892.78;5074238;28;20354;-75
2021/01/07 09:50:15;;;;;;;7.93;4.60;;;;;;;4.07;100.00;97897.75;5074095;28;20544;-75
2021/01/07 09:52:42;;;;;;;6.83;3.97;;;;;;;4.23;100.00;97895.97;5071245;28;20259;-76
2021/01/07 09:55:10;;;;;;;8.03;4.20;;;;;;;4.18;100.00;97892.16;5070275;28;20232;-77
2021/01/07 09:57:37;;;;;;;8.23;4.10;;;;;;;3.86;100.00;97892.94;5068244;28;20213;-75
2021/01/07 10:00:06;;;;;;;7.47;4.00;;;;;;;4.25;100.00;97888.69;5068177;28;20228;-74
2021/01/07 10:02:33;;;;;;;8.17;4.77;;;;;;;4.40;100.00;97891.50;5070126;28;20206;-77
2021/01/07 10:04:59;;;;;;;9.47;4.93;;;;;;;4.50;100.00;97893.00;5065768;28;20223;-75
2021/01/07 10:07:27;;;;;;;10.63;5.20;;;;;;;4.64;100.00;97886.19;5072494;28;20203;-77
2021/01/07 10:09:54;;;;;;;7.43;4.33;;;;;;;4.75;100.00;97891.13;5071126;28;20207;-77
2021/01/07 10:12:21;;;;;;;13.00;5.80;;;;;;;4.87;100.00;97887.16;5071514;28;20199;-77
2021/01/07 10:14:48;;;;;;;8.80;4.47;;;;;;;4.86;100.00;97896.06;5072037;28;20275;-77
2021/01/07 10:17:15;;;;;;;10.53;4.70;;;;;;;4.31;100.00;97898.59;5071182;28;20209;-78
2021/01/07 10:19:42;;;;;;;9.10;4.83;;;;;;;4.79;100.00;97895.09;5069328;28;20231;-76
2021/01/07 10:22:10;;;;;;;7.27;4.33;;;;;;;4.78;100.00;97883.69;5072202;28;20198;-75
2021/01/07 10:24:41;;;;;;;7.10;4.03;;;;;;;4.73;100.00;97883.38;5066147;28;20703;-75
2021/01/07 10:27:10;;;;;;;7.40;3.90;;;;;;;4.35;100.00;97891.16;5062211;28;20273;-76
2021/01/07 10:29:38;;;;;;;7.07;4.17;;;;;;;4.71;100.00;97895.94;5071879;28;20548;-76
2021/01/07 10:32:07;;;;;;;8.20;4.50;;;;;;;4.88;100.00;97884.34;5065633;28;20207;-76
2021/01/07 10:34:35;;;;;;;9.17;4.40;;;;;;;4.90;100.00;97877.09;5062327;28;20265;-76
2021/01/07 10:37:04;;;;;;;6.73;4.07;;;;;;;4.93;100.00;97870.63;5070453;28;20214;-76
2021/01/07 10:39:33;;;;;;;7.83;4.47;;;;;;;4.97;100.00;97869.31;5071261;28;20221;-76
2021/01/07 10:42:01;;;;;;;7.60;4.30;;;;;;;5.10;100.00;97874.88;5071520;28;20252;-77
2021/01/07 10:44:29;;;;;;;8.53;4.37;;;;;;;5.09;100.00;97867.94;5069914;28;20632;-75
2021/01/07 10:47:00;;;;;;;10.97;5.30;;;;;;;5.23;100.00;97865.41;5062298;28;20219;-76
2021/01/07 10:49:28;;;;;;;7.77;4.07;;;;;;;5.18;100.00;97872.22;5070358;28;20199;-76
2021/01/07 10:52:10;;;;;;;8.63;4.60;;;;;;;4.87;100.00;97858.91;5071664;28;20644;-76
2021/01/07 10:54:47;;;;;;;6.63;4.00;;;;;;;5.12;100.00;97863.13;5064592;28;20307;-76
2021/01/07 10:57:43;;;;;;;8.83;4.17;;;;;;;4.78;100.00;97862.53;5073743;28;20199;-76
2021/01/07 11:00:17;;;;;;;8.27;4.80;;;;;;;5.17;100.00;97846.72;5073188;28;20592;-75
2021/01/07 11:03:18;;;;;;;7.27;4.30;;;;;;;5.05;100.00;97843.66;5063801;28;20290;-75
2021/01/07 11:05:46;;;;;;;7.07;4.17;;;;;;;5.06;100.00;97847.94;5053641;28;20284;-76
2021/01/07 11:08:19;;;;;;;5.93;4.07;;;;;;;5.35;100.00;97837.59;5070161;28;20231;-77
2021/01/07 11:10:54;;;;;;;9.17;4.70;;;;;;;5.42;100.00;97835.88;5070862;28;20676;-74
2021/01/07 11:13:24;;;;;;;6.07;3.60;;;;;;;4.71;100.00;97837.78;5064618;28;20190;-76
2021/01/07 11:15:55;;;;;;;6.20;3.50;;;;;;;4.73;100.00;97833.16;5071087;28;20224;-77
2021/01/07 11:18:26;;;;;;;6.97;3.93;;;;;;;5.19;100.00;97828.88;5069638;28;20222;-77
2021/01/07 11:20:59;;;;;;;8.83;4.20;;;;;;;5.51;100.00;97831.38;5072222;28;20199;-75
2021/01/07 11:23:27;;;;;;;7.80;3.93;;;;;;;5.38;100.00;97824.00;5067133;28;20204;-76
2021/01/07 11:25:54;;;;;;;8.17;4.20;;;;;;;5.20;100.00;97819.94;5073126;28;20544;-75
2021/01/07 11:28:21;;;;;;;7.80;4.50;;;;;;;5.53;100.00;97811.69;5076222;28;20210;-76
2021/01/07 11:30:49;;;;;;;7.33;3.70;;;;;;;4.60;100.00;97813.53;5106792;22;20243;-77
2021/01/07 11:33:17;;;;;;;8.33;4.47;;;;;;;4.51;100.00;97812.72;5090078;28;20215;-77
2021/01/07 11:35:45;;;;;;;8.23;4.67;;;;;;;4.48;100.00;97813.06;5094342;28;20208;-76
2021/01/07 11:38:23;;;;;;;8.73;4.40;;;;;;;5.13;100.00;97801.28;5092426;28;20230;-78